createdAt,value
2017-08-28T00:01:05.447Z,92.00
2017-08-28T00:04:03.185Z,92.00
2017-08-28T00:07:00.854Z,92.10
2017-08-28T00:09:58.393Z,92.10
2017-08-28T00:12:55.955Z,92.20
2017-08-28T00:15:53.625Z,92.70
2017-08-28T00:18:51.236Z,93.00
2017-08-28T00:21:48.749Z,92.90
2017-08-28T00:24:46.450Z,93.10
2017-08-28T00:27:44.202Z,93.10
2017-08-28T00:30:42.067Z,93.00
2017-08-28T00:33:39.740Z,93.00
2017-08-28T00:36:37.279Z,93.00
2017-08-28T00:39:34.948Z,93.10
2017-08-28T00:42:32.798Z,93.40
2017-08-28T00:45:31.511Z,93.20
2017-08-28T00:48:29.105Z,93.30
2017-08-28T00:51:26.783Z,93.40
2017-08-28T00:54:24.527Z,93.40
2017-08-28T00:57:22.079Z,93.10
2017-08-28T01:00:19.839Z,93.20
2017-08-28T01:03:17.611Z,93.40
2017-08-28T01:06:15.086Z,93.40
2017-08-28T01:09:12.715Z,93.50
2017-08-28T01:12:10.275Z,93.30
2017-08-28T01:15:07.786Z,93.20
2017-08-28T01:18:05.360Z,93.30
2017-08-28T01:21:03.048Z,93.30
2017-08-28T01:24:00.787Z,93.60
2017-08-28T01:26:59.299Z,93.60
2017-08-28T01:30:00.042Z,93.60
2017-08-28T01:32:57.477Z,93.60
2017-08-28T01:35:55.162Z,93.50
2017-08-28T01:38:52.762Z,93.80
2017-08-28T01:41:50.541Z,93.90
2017-08-28T01:44:48.042Z,93.90
2017-08-28T01:47:45.647Z,94.00
2017-08-28T01:50:42.859Z,93.80
2017-08-28T01:53:40.319Z,93.60
2017-08-28T01:56:38.027Z,93.50
2017-08-28T01:59:35.500Z,93.50
2017-08-28T02:02:32.888Z,93.60
2017-08-28T02:05:30.388Z,93.60
2017-08-28T02:08:28.002Z,93.50
2017-08-28T02:11:25.650Z,93.40
2017-08-28T02:14:23.246Z,93.30
2017-08-28T02:17:20.760Z,93.20
2017-08-28T02:20:18.160Z,93.30
2017-08-28T02:23:15.672Z,93.50
2017-08-28T02:26:13.214Z,93.70
2017-08-28T02:29:10.840Z,93.70
2017-08-28T02:32:08.475Z,93.90
2017-08-28T02:35:06.099Z,94.00
2017-08-28T02:38:03.663Z,94.00
2017-08-28T02:41:01.092Z,93.90
2017-08-28T02:43:58.579Z,93.70
2017-08-28T02:46:55.995Z,93.70
2017-08-28T02:49:53.446Z,93.60
2017-08-28T02:52:51.049Z,93.60
2017-08-28T02:55:48.525Z,93.50
2017-08-28T02:58:46.187Z,93.40
2017-08-28T03:01:46.696Z,93.50
2017-08-28T03:04:44.160Z,93.60
2017-08-28T03:07:41.679Z,93.60
2017-08-28T03:10:39.521Z,93.60
2017-08-28T03:13:37.140Z,93.70
2017-08-28T03:16:34.813Z,93.70
2017-08-28T03:19:32.416Z,93.70
2017-08-28T03:22:30.079Z,93.70
2017-08-28T03:25:27.822Z,93.70
2017-08-28T03:28:25.448Z,93.80
2017-08-28T03:31:22.950Z,94.00
2017-08-28T03:34:20.749Z,94.00
2017-08-28T03:37:18.432Z,94.60
2017-08-28T03:40:16.085Z,94.80
2017-08-28T03:43:13.756Z,94.60
2017-08-28T03:46:11.341Z,94.70
2017-08-28T03:49:09.028Z,94.60
2017-08-28T03:52:06.470Z,94.50
2017-08-28T03:55:04.166Z,94.60
2017-08-28T03:58:01.855Z,94.60
2017-08-28T04:00:59.266Z,94.60
2017-08-28T04:03:56.958Z,94.60
2017-08-28T04:06:54.403Z,94.50
2017-08-28T04:09:51.857Z,94.30
2017-08-28T04:12:49.798Z,94.50
2017-08-28T04:15:47.250Z,94.40
2017-08-28T04:18:44.878Z,94.60
2017-08-28T04:21:44.325Z,94.50
2017-08-28T04:24:47.686Z,94.50
2017-08-28T04:27:45.487Z,94.70
2017-08-28T04:30:45.951Z,94.80
2017-08-28T04:33:43.981Z,94.70
2017-08-28T04:36:41.498Z,94.60
2017-08-28T04:39:39.040Z,94.60
2017-08-28T04:42:36.576Z,94.60
2017-08-28T04:45:34.258Z,94.90
2017-08-28T04:48:31.761Z,94.80
2017-08-28T04:51:29.322Z,94.90
2017-08-28T04:54:26.751Z,94.50
2017-08-28T04:57:24.186Z,94.40
2017-08-28T05:00:21.930Z,94.30
2017-08-28T05:03:19.331Z,94.10
2017-08-28T05:06:17.238Z,93.90
2017-08-28T05:09:15.126Z,93.90
2017-08-28T05:12:17.578Z,93.90
2017-08-28T05:15:15.219Z,93.80
2017-08-28T05:18:12.872Z,93.80
2017-08-28T05:21:10.495Z,93.80
2017-08-28T05:24:07.937Z,93.60
2017-08-28T05:27:05.581Z,93.70
2017-08-28T05:30:03.310Z,93.70
2017-08-28T05:33:00.626Z,93.60
2017-08-28T05:35:57.978Z,93.50
2017-08-28T05:38:55.608Z,93.50
2017-08-28T05:41:53.062Z,93.30
2017-08-28T05:44:50.529Z,93.30
2017-08-28T05:47:48.061Z,93.00
2017-08-28T05:50:45.646Z,93.00
2017-08-28T05:53:43.162Z,92.70
2017-08-28T05:56:40.834Z,92.70
2017-08-28T05:59:38.395Z,92.40
2017-08-28T06:02:35.867Z,92.40
2017-08-28T06:05:33.351Z,92.30
2017-08-28T06:08:30.876Z,91.90
2017-08-28T06:11:28.503Z,91.50
2017-08-28T06:14:25.934Z,91.50
2017-08-28T06:17:23.462Z,91.40
2017-08-28T06:20:20.999Z,91.20
2017-08-28T06:23:18.520Z,91.40
2017-08-28T06:26:16.146Z,90.70
2017-08-28T06:29:13.666Z,90.60
2017-08-28T06:32:11.202Z,90.00
2017-08-28T06:35:08.820Z,90.40
2017-08-28T06:38:06.462Z,89.50
2017-08-28T06:41:03.729Z,90.10
2017-08-28T06:44:01.219Z,89.50
2017-08-28T06:46:58.755Z,88.90
2017-08-28T06:49:56.216Z,88.40
2017-08-28T06:52:53.768Z,88.40
2017-08-28T06:55:51.170Z,88.60
2017-08-28T06:58:48.860Z,87.70
2017-08-28T07:01:46.542Z,87.80
2017-08-28T07:04:44.099Z,86.80
2017-08-28T07:07:41.583Z,86.80
2017-08-28T07:10:39.092Z,86.60
2017-08-28T07:13:36.580Z,86.20
2017-08-28T07:16:43.247Z,87.00
2017-08-28T07:19:40.800Z,88.30
2017-08-28T07:22:38.359Z,85.30
2017-08-28T07:25:35.700Z,85.70
2017-08-28T07:28:33.066Z,86.30
2017-08-28T07:31:30.579Z,84.30
2017-08-28T07:34:28.122Z,85.00
2017-08-28T07:37:25.572Z,82.90
2017-08-28T07:40:23.182Z,83.30
2017-08-28T07:43:20.557Z,83.90
2017-08-28T07:46:18.107Z,83.20
2017-08-28T07:49:15.553Z,82.00
2017-08-28T07:52:13.138Z,81.00
2017-08-28T07:55:10.534Z,81.20
2017-08-28T07:58:08.097Z,79.70
2017-08-28T08:01:05.716Z,80.10
2017-08-28T08:04:03.256Z,79.30
2017-08-28T08:07:00.933Z,80.10
2017-08-28T08:09:58.647Z,78.70
2017-08-28T08:12:56.300Z,79.10
2017-08-28T08:15:53.843Z,78.20
2017-08-28T08:18:51.285Z,76.50
2017-08-28T08:21:48.762Z,76.90
2017-08-28T08:24:46.236Z,77.40
2017-08-28T08:27:43.722Z,78.10
2017-08-28T08:30:41.158Z,78.10
2017-08-28T08:33:44.737Z,76.50
2017-08-28T08:36:42.156Z,75.90
2017-08-28T08:39:39.624Z,75.50
2017-08-28T08:42:37.144Z,74.70
2017-08-28T08:45:34.713Z,76.70
2017-08-28T08:48:32.232Z,75.40
2017-08-28T08:51:30.101Z,75.40
2017-08-28T08:54:27.673Z,74.20
2017-08-28T08:57:25.201Z,74.80
2017-08-28T09:00:22.872Z,74.80
2017-08-28T09:03:20.411Z,73.80
2017-08-28T09:06:17.503Z,74.50
2017-08-28T09:09:14.874Z,73.50
2017-08-28T09:12:12.405Z,74.50
2017-08-28T09:15:09.930Z,73.10
2017-08-28T09:18:07.430Z,72.20
2017-08-28T09:21:05.238Z,72.00
2017-08-28T09:24:02.851Z,73.70
2017-08-28T09:27:00.375Z,74.70
2017-08-28T09:29:58.209Z,70.90
2017-08-28T09:32:55.708Z,72.70
2017-08-28T09:35:53.366Z,71.80
2017-08-28T09:38:50.950Z,72.80
2017-08-28T09:41:48.382Z,70.10
2017-08-28T09:44:46.022Z,70.50
2017-08-28T09:47:43.903Z,69.60
2017-08-28T09:50:41.307Z,70.80
2017-08-28T09:53:38.854Z,70.40
2017-08-28T09:56:36.595Z,69.70
2017-08-28T09:59:34.399Z,68.80
2017-08-28T10:02:31.750Z,69.40
2017-08-28T10:05:29.295Z,69.80
2017-08-28T10:08:28.852Z,67.40
2017-08-28T10:11:38.469Z,67.50
2017-08-28T10:14:35.951Z,68.20
2017-08-28T10:17:33.356Z,68.20
2017-08-28T10:20:34.856Z,67.70
2017-08-28T10:23:33.383Z,67.40
2017-08-28T10:26:30.986Z,64.90
2017-08-28T10:29:29.731Z,64.50
2017-08-28T10:32:29.427Z,65.30
2017-08-28T10:35:27.146Z,64.00
2017-08-28T10:38:26.618Z,64.00
2017-08-28T10:41:24.226Z,63.20
2017-08-28T10:44:21.857Z,62.40
2017-08-28T10:47:20.559Z,63.60
2017-08-28T10:50:19.076Z,62.80
2017-08-28T10:53:19.713Z,62.20
2017-08-28T10:56:18.291Z,61.30
2017-08-28T10:59:16.175Z,62.10
2017-08-28T11:02:19.948Z,61.60
2017-08-28T11:05:17.639Z,61.10
2017-08-28T11:08:18.255Z,61.50
2017-08-28T11:11:15.837Z,61.90
2017-08-28T11:14:13.334Z,62.80
2017-08-28T11:17:14.131Z,60.50
2017-08-28T11:20:17.887Z,60.80
2017-08-28T11:23:21.472Z,59.80
2017-08-28T11:26:18.967Z,61.90
2017-08-28T11:29:18.439Z,60.70
2017-08-28T11:32:16.049Z,60.00
2017-08-28T11:35:19.753Z,57.20
2017-08-28T11:38:26.493Z,58.00
2017-08-28T11:41:26.146Z,59.50
2017-08-28T11:44:23.731Z,58.50
2017-08-28T11:47:26.363Z,57.90
2017-08-28T11:50:24.159Z,57.40
2017-08-28T11:53:24.952Z,60.30
2017-08-28T11:56:26.460Z,59.20
2017-08-28T11:59:24.221Z,57.40
2017-08-28T12:02:23.944Z,59.10
2017-08-28T12:05:27.483Z,59.10
2017-08-28T12:08:33.143Z,58.30
2017-08-28T12:11:30.634Z,56.10
2017-08-28T12:14:28.335Z,57.10
2017-08-28T12:17:25.966Z,59.10
2017-08-28T12:20:24.700Z,57.90
2017-08-28T12:23:22.197Z,56.70
2017-08-28T12:26:23.932Z,56.70
2017-08-28T12:29:21.491Z,56.40
2017-08-28T12:32:19.027Z,56.60
2017-08-28T12:35:19.717Z,57.30
2017-08-28T12:38:19.044Z,56.70
2017-08-28T12:41:17.677Z,56.10
2017-08-28T12:44:15.051Z,55.50
2017-08-28T12:47:12.385Z,56.30
2017-08-28T12:50:11.010Z,56.50
2017-08-28T12:53:10.544Z,55.30
2017-08-28T12:56:10.247Z,56.20
2017-08-28T12:59:11.142Z,55.80
2017-08-28T13:02:09.784Z,56.20
2017-08-28T13:05:07.250Z,55.00
2017-08-28T13:08:04.587Z,54.20
2017-08-28T13:11:04.466Z,53.80
2017-08-28T13:14:03.102Z,51.20
2017-08-28T13:17:00.974Z,54.30
2017-08-28T13:19:58.448Z,53.50
2017-08-28T13:22:55.898Z,54.70
2017-08-28T13:25:54.844Z,55.00
2017-08-28T13:28:56.400Z,54.90
2017-08-28T13:31:56.236Z,56.60
2017-08-28T13:34:53.909Z,54.80
2017-08-28T13:37:51.420Z,54.90
2017-08-28T13:40:51.191Z,55.70
2017-08-28T13:43:48.952Z,53.60
2017-08-28T13:46:51.723Z,53.30
2017-08-28T13:49:49.992Z,55.60
2017-08-28T13:52:48.070Z,53.70
2017-08-28T13:55:45.791Z,53.20
2017-08-28T13:58:43.655Z,55.30
2017-08-28T14:01:42.191Z,55.20
2017-08-28T14:04:39.659Z,54.80
2017-08-28T14:07:37.342Z,53.80
2017-08-28T14:10:34.515Z,54.70
2017-08-28T14:13:31.995Z,55.40
2017-08-28T14:16:46.925Z,53.50
2017-08-28T14:19:44.568Z,54.50
2017-08-28T14:22:41.990Z,55.70
2017-08-28T14:25:44.558Z,53.30
2017-08-28T14:28:43.038Z,52.80
2017-08-28T14:31:44.576Z,54.10
2017-08-28T14:34:46.061Z,53.50
2017-08-28T14:37:44.382Z,53.20
2017-08-28T14:40:43.911Z,54.00
2017-08-28T14:43:41.638Z,53.30
2017-08-28T14:46:39.182Z,54.10
2017-08-28T14:49:37.635Z,52.80
2017-08-28T14:52:35.100Z,52.90
2017-08-28T14:55:35.838Z,51.80
2017-08-28T14:58:34.535Z,51.40
2017-08-28T15:01:38.286Z,52.10
2017-08-28T15:04:38.939Z,51.30
2017-08-28T15:07:36.442Z,53.20
2017-08-28T15:10:33.939Z,51.20
2017-08-28T15:13:40.655Z,50.80
2017-08-28T15:16:38.344Z,50.90
2017-08-28T15:19:36.094Z,53.60
2017-08-28T15:22:33.653Z,51.00
2017-08-28T15:25:33.514Z,51.80
2017-08-28T15:28:31.135Z,51.60
2017-08-28T15:31:29.894Z,52.30
2017-08-28T15:34:27.552Z,52.20
2017-08-28T15:37:26.270Z,53.00
2017-08-28T15:40:24.960Z,52.20
2017-08-28T15:43:22.636Z,52.20
2017-08-28T15:46:20.034Z,52.00
2017-08-28T15:49:19.710Z,54.70
2017-08-28T15:52:19.506Z,52.70
2017-08-28T15:55:23.156Z,52.00
2017-08-28T15:58:23.742Z,53.30
2017-08-28T16:01:21.296Z,53.90
2017-08-28T16:04:21.895Z,53.90
2017-08-28T16:07:20.698Z,54.90
2017-08-28T16:10:18.184Z,50.90
2017-08-28T16:13:17.548Z,54.30
2017-08-28T16:16:15.268Z,55.00
2017-08-28T16:19:12.854Z,54.20
2017-08-28T16:22:10.625Z,55.90
2017-08-28T16:25:07.989Z,55.00
2017-08-28T16:28:08.850Z,54.60
2017-08-28T16:31:06.524Z,55.10
2017-08-28T16:34:05.344Z,54.50
2017-08-28T16:37:02.824Z,54.70
2017-08-28T16:40:00.416Z,54.20
2017-08-28T16:43:01.028Z,55.00
2017-08-28T16:45:58.464Z,55.70
2017-08-28T16:48:55.981Z,56.60
2017-08-28T16:51:53.652Z,56.80
2017-08-28T16:54:53.317Z,57.00
2017-08-28T16:57:51.911Z,57.90
2017-08-28T17:00:50.494Z,58.00
2017-08-28T17:03:48.956Z,58.20
2017-08-28T17:06:51.536Z,58.60
2017-08-28T17:09:55.199Z,58.50
2017-08-28T17:12:52.821Z,59.10
2017-08-28T17:15:50.397Z,58.60
2017-08-28T17:18:59.895Z,59.00
2017-08-28T17:21:57.520Z,59.40
2017-08-28T17:24:55.051Z,59.50
2017-08-28T17:27:52.692Z,60.20
2017-08-28T17:30:50.115Z,60.50
2017-08-28T17:33:47.811Z,60.70
2017-08-28T17:36:50.533Z,61.70
2017-08-28T17:39:51.043Z,63.00
2017-08-28T17:42:48.613Z,63.30
2017-08-28T17:45:46.026Z,64.20
2017-08-28T17:48:44.052Z,64.30
2017-08-28T17:51:41.684Z,64.70
2017-08-28T17:54:39.311Z,64.90
2017-08-28T17:57:38.890Z,65.60
2017-08-28T18:00:38.686Z,65.90
2017-08-28T18:03:41.852Z,67.20
2017-08-28T18:06:39.202Z,67.50
2017-08-28T18:09:36.786Z,68.10
2017-08-28T18:12:36.182Z,68.30
2017-08-28T18:15:34.018Z,68.30
2017-08-28T18:18:38.683Z,68.60
2017-08-28T18:21:36.210Z,69.00
2017-08-28T18:24:33.863Z,69.30
2017-08-28T18:27:32.487Z,69.60
2017-08-28T18:30:30.103Z,69.80
2017-08-28T18:33:27.816Z,70.70
2017-08-28T18:36:25.074Z,71.70
2017-08-28T18:39:23.091Z,71.50
2017-08-28T18:42:20.776Z,72.30
2017-08-28T18:45:18.256Z,73.30
2017-08-28T18:48:17.864Z,73.50
2017-08-28T18:51:15.747Z,73.70
2017-08-28T18:54:13.752Z,74.00
2017-08-28T18:57:14.182Z,74.30
2017-08-28T19:00:11.582Z,75.20
2017-08-28T19:03:12.245Z,75.90
2017-08-28T19:06:09.807Z,76.10
2017-08-28T19:09:08.295Z,77.10
2017-08-28T19:12:05.800Z,77.30
2017-08-28T19:15:07.434Z,77.60
2017-08-28T19:18:05.292Z,77.60
2017-08-28T19:21:05.861Z,77.40
2017-08-28T19:24:03.407Z,77.10
2017-08-28T19:27:08.215Z,77.60
2017-08-28T19:30:12.006Z,78.50
2017-08-28T19:33:16.535Z,77.70
2017-08-28T19:36:15.095Z,78.00
2017-08-28T19:39:24.606Z,78.30
2017-08-28T19:42:22.301Z,78.50
2017-08-28T19:45:26.871Z,78.80
2017-08-28T19:48:24.452Z,78.90
2017-08-28T19:51:31.131Z,79.00
2017-08-28T19:54:36.904Z,80.20
2017-08-28T19:57:34.415Z,80.10
2017-08-28T20:00:39.936Z,80.30
2017-08-28T20:03:38.341Z,80.20
2017-08-28T20:06:41.751Z,80.40
2017-08-28T20:09:43.241Z,80.60
2017-08-28T20:12:44.869Z,80.60
2017-08-28T20:15:56.698Z,80.60
2017-08-28T20:18:55.336Z,80.60
2017-08-28T20:21:54.221Z,81.10
2017-08-28T20:24:54.816Z,81.50
2017-08-28T20:28:05.467Z,81.80
2017-08-28T20:31:02.946Z,82.30
2017-08-28T20:34:00.588Z,82.80
2017-08-28T20:36:58.192Z,82.90
2017-08-28T20:39:55.991Z,82.80
2017-08-28T20:46:21.174Z,83.00
2017-08-28T20:49:18.802Z,83.30
2017-08-28T20:52:16.430Z,83.50
2017-08-28T20:55:13.975Z,83.40
2017-08-28T20:58:26.526Z,84.30
2017-08-28T21:01:24.315Z,83.50
2017-08-28T21:04:25.136Z,84.30
2017-08-28T21:07:22.998Z,84.40
2017-08-28T21:10:20.644Z,84.60
2017-08-28T21:13:20.328Z,85.10
2017-08-28T21:16:19.176Z,85.40
2017-08-28T21:19:19.611Z,85.70
2017-08-28T21:22:17.247Z,85.60
2017-08-28T21:25:20.896Z,85.50
2017-08-28T21:28:19.428Z,85.70
2017-08-28T21:31:17.840Z,86.30
2017-08-28T21:34:18.263Z,86.90
2017-08-28T21:37:24.932Z,87.40
2017-08-28T21:40:31.444Z,87.90
2017-08-28T21:43:29.099Z,88.00
2017-08-28T21:46:26.610Z,88.60
2017-08-28T21:49:24.218Z,88.80
2017-08-28T21:52:26.848Z,88.50
2017-08-28T21:55:25.471Z,88.30
2017-08-28T21:58:40.958Z,88.30
2017-08-28T22:01:38.644Z,88.20
2017-08-28T22:04:38.375Z,88.60
2017-08-28T22:07:36.870Z,89.00
2017-08-28T22:10:37.515Z,89.40
2017-08-28T22:13:43.103Z,89.70
2017-08-28T22:16:42.723Z,89.50
2017-08-28T22:19:40.340Z,89.20
2017-08-28T22:22:46.916Z,89.20
2017-08-28T22:25:44.459Z,89.50
2017-08-28T22:28:44.093Z,90.00
2017-08-28T22:31:42.555Z,89.90
2017-08-28T22:34:46.515Z,89.80
2017-08-28T22:37:44.068Z,90.00
2017-08-28T22:40:42.743Z,89.70
2017-08-28T22:43:44.161Z,89.40
2017-08-28T22:46:44.607Z,89.80
2017-08-28T22:49:42.464Z,90.00
2017-08-28T22:52:44.341Z,90.00
2017-08-28T22:55:43.051Z,90.00
2017-08-28T22:58:41.690Z,90.00
2017-08-28T23:01:39.262Z,90.40
2017-08-28T23:04:39.834Z,90.80
2017-08-28T23:07:43.328Z,90.80
2017-08-28T23:10:40.851Z,90.60
2017-08-28T23:13:43.565Z,90.30
2017-08-28T23:16:43.236Z,90.20
2017-08-28T23:19:57.851Z,90.30
2017-08-28T23:22:55.491Z,90.40
2017-08-28T23:25:54.069Z,90.50
2017-08-28T23:28:51.716Z,90.50
2017-08-28T23:31:49.271Z,90.70
2017-08-28T23:34:53.007Z,90.40
2017-08-28T23:37:50.833Z,90.90
2017-08-28T23:40:54.596Z,91.30
2017-08-28T23:43:55.219Z,91.60
2017-08-28T23:46:54.630Z,91.50
2017-08-28T23:49:52.456Z,91.40
2017-08-28T23:52:51.095Z,91.10
2017-08-28T23:55:49.880Z,91.00
2017-08-28T23:58:49.594Z,91.10
